Time;durP1;ratioP1;P1;durP2;ratioP2;P2;SDS_P1;SDS_P2;PMS_P1;PMS_P2;Temp;Humidity;BMP_temperature;BMP_pressure;BME280_temperature;BME280_humidity;BME280_pressure;Samples;Min_cycle;Max_cycle;Signal;HPM_P1;HPM_P2
2022/01/21 00:00:47;;;;;;;5.07;1.10;;;24.80;99.90;;;;;;5056202;28;20197;-89
2022/01/21 00:03:18;;;;;;;3.08;0.95;;;24.80;99.90;;;;;;5066860;28;20211;-91
2022/01/21 00:05:48;;;;;;;4.07;1.33;;;24.80;99.90;;;;;;5057020;28;20200;-87
2022/01/21 00:08:19;;;;;;;5.65;1.50;;;24.80;99.90;;;;;;5055163;28;20192;-90
2022/01/21 00:10:50;;;;;;;6.20;1.60;;;24.90;99.90;;;;;;5053185;28;20237;-86
2022/01/21 00:13:33;;;;;;;5.95;1.13;;;24.90;99.90;;;;;;5061854;28;20196;-86
2022/01/21 00:16:04;;;;;;;6.45;1.38;;;24.90;99.90;;;;;;5071895;28;20257;-90
2022/01/21 00:18:37;;;;;;;5.22;1.27;;;25.00;99.90;;;;;;5072803;28;20657;-89
2022/01/21 00:32:28;;;;;;;3.70;1.10;;;25.40;99.90;;;;;;5070640;28;20199;-88
2022/01/21 00:34:59;;;;;;;3.03;0.80;;;25.50;99.90;;;;;;5050404;28;20284;-89
2022/01/21 00:37:29;;;;;;;6.10;1.10;;;25.50;99.90;;;;;;5063918;28;20667;-90
2022/01/21 00:40:02;;;;;;;5.80;1.10;;;25.50;99.90;;;;;;5045627;28;20636;-87
2022/01/21 00:42:52;;;;;;;5.97;1.17;;;25.50;99.90;;;;;;5039271;28;20658;-90
2022/01/21 00:45:26;;;;;;;3.85;1.17;;;25.50;99.90;;;;;;5031996;28;20201;-87
2022/01/21 00:47:57;;;;;;;5.13;1.00;;;25.40;99.90;;;;;;5044816;28;20196;-88
2022/01/21 00:50:28;;;;;;;4.63;1.10;;;25.40;99.90;;;;;;5073225;28;20199;-87
2022/01/21 00:53:00;;;;;;;3.63;1.20;;;25.40;99.90;;;;;;5065075;28;20207;-88
2022/01/21 00:55:31;;;;;;;3.40;1.00;;;25.30;99.90;;;;;;5062884;28;20219;-87
2022/01/21 00:58:02;;;;;;;4.45;0.90;;;25.30;99.90;;;;;;5061085;28;20215;-89
2022/01/21 01:00:36;;;;;;;3.83;1.02;;;25.40;99.90;;;;;;5067575;28;20201;-88
2022/01/21 01:03:07;;;;;;;3.00;0.60;;;25.30;99.90;;;;;;5038993;28;20238;-86
2022/01/21 01:05:38;;;;;;;3.65;1.00;;;25.30;99.90;;;;;;5052220;28;20683;-88
2022/01/21 01:08:09;;;;;;;2.72;0.90;;;25.20;99.90;;;;;;5070980;28;20199;-89
2022/01/21 01:10:47;;;;;;;2.33;0.90;;;25.30;99.90;;;;;;5054189;28;20699;-88
2022/01/21 01:21:43;;;;;;;5.05;1.08;;;25.30;99.90;;;;;;5052152;28;20195;-88
2022/01/21 01:29:51;;;;;;;5.75;1.23;;;25.30;99.90;;;;;;5069864;28;20267;-85
2022/01/21 01:32:24;;;;;;;5.47;1.10;;;25.30;99.90;;;;;;5065038;28;20639;-85
2022/01/21 01:34:55;;;;;;;5.38;1.30;;;25.30;99.90;;;;;;5062581;28;20332;-90
2022/01/21 01:37:37;;;;;;;5.05;1.40;;;25.30;99.90;;;;;;5064413;28;20193;-90
2022/01/21 01:40:21;;;;;;;4.30;1.10;;;25.20;99.90;;;;;;5058165;28;20200;-89
2022/01/21 01:51:29;;;;;;;6.05;1.48;;;25.20;99.90;;;;;;5039798;28;20196;-85
2022/01/21 01:54:03;;;;;;;5.10;1.40;;;25.20;99.90;;;;;;5062854;28;20269;-85
2022/01/21 01:56:40;;;;;;;6.25;1.60;;;25.20;99.90;;;;;;5068939;28;20216;-85
2022/01/21 01:59:13;;;;;;;3.35;1.30;;;25.20;99.90;;;;;;5064888;28;20204;-85
2022/01/21 02:01:44;;;;;;;7.07;1.40;;;25.10;99.90;;;;;;5070597;28;20200;-85
2022/01/21 02:04:17;;;;;;;4.53;1.20;;;25.00;99.90;;;;;;5066007;28;20276;-90
2022/01/21 02:06:48;;;;;;;5.22;1.60;;;24.90;99.90;;;;;;5069902;28;20206;-89
2022/01/21 02:09:20;;;;;;;4.38;1.30;;;24.90;99.90;;;;;;5054849;28;20197;-90
2022/01/21 02:11:51;;;;;;;7.10;1.67;;;24.90;99.90;;;;;;5044855;28;20687;-88
2022/01/21 02:14:26;;;;;;;6.40;1.65;;;24.90;99.90;;;;;;5057308;28;20273;-86
2022/01/21 02:17:24;;;;;;;7.03;1.42;;;25.00;99.90;;;;;;5063995;28;20195;-86
2022/01/21 02:22:48;;;;;;;5.80;1.30;;;25.00;99.90;;;;;;5062185;28;20219;-86
2022/01/21 02:25:19;;;;;;;4.60;1.40;;;25.00;99.90;;;;;;5063439;28;20682;-85
2022/01/21 02:27:51;;;;;;;5.90;1.45;;;25.00;99.90;;;;;;5057179;28;20949;-83
2022/01/21 02:30:24;;;;;;;6.38;1.60;;;25.10;99.90;;;;;;5056978;28;20197;-88
2022/01/21 02:33:00;;;;;;;5.85;1.35;;;25.20;99.90;;;;;;5053911;28;20224;-87
2022/01/21 02:35:30;;;;;;;4.70;1.55;;;25.30;99.90;;;;;;5053518;28;20216;-87
2022/01/21 02:38:04;;;;;;;5.65;1.48;;;25.20;99.90;;;;;;5067308;28;20203;-88
2022/01/21 02:40:35;;;;;;;8.18;1.55;;;25.30;99.90;;;;;;5072624;28;20193;-89
2022/01/21 02:43:07;;;;;;;5.18;1.40;;;25.50;99.90;;;;;;5073682;28;20211;-89
2022/01/21 02:45:40;;;;;;;5.03;1.40;;;25.50;99.90;;;;;;5069636;28;20204;-92
2022/01/21 02:48:10;;;;;;;5.28;1.48;;;25.50;99.90;;;;;;5058175;28;20280;-92
2022/01/21 02:50:41;;;;;;;6.07;1.40;;;25.60;99.90;;;;;;5061048;28;20192;-88
2022/01/21 02:53:26;;;;;;;6.35;1.40;;;25.60;99.90;;;;;;5063243;28;20575;-89
2022/01/21 02:55:57;;;;;;;5.75;1.50;;;25.60;99.90;;;;;;5054281;28;20699;-89
2022/01/21 02:58:27;;;;;;;5.10;1.38;;;25.60;99.90;;;;;;5053841;28;20196;-87
2022/01/21 03:00:58;;;;;;;7.18;1.48;;;25.60;99.90;;;;;;5055802;28;20686;-91
2022/01/21 03:03:29;;;;;;;6.63;1.60;;;25.60;99.90;;;;;;5069928;28;20659;-89
2022/01/21 03:06:01;;;;;;;3.58;1.10;;;25.70;99.90;;;;;;5066367;28;20263;-88
2022/01/21 03:08:33;;;;;;;6.50;1.33;;;25.70;99.90;;;;;;5054991;28;20203;-87
2022/01/21 03:11:04;;;;;;;5.88;1.33;;;25.70;99.90;;;;;;5059672;28;20226;-86
2022/01/21 03:13:36;;;;;;;3.55;1.23;;;25.60;99.90;;;;;;5072456;28;20635;-88
2022/01/21 03:16:07;;;;;;;6.97;1.52;;;25.70;99.90;;;;;;5067103;28;21097;-88
2022/01/21 03:18:38;;;;;;;4.88;1.15;;;25.60;99.90;;;;;;5059207;28;20188;-89
2022/01/21 03:21:15;;;;;;;5.65;1.45;;;25.40;99.90;;;;;;5067039;28;20239;-88
2022/01/21 03:23:49;;;;;;;4.57;1.35;;;25.40;99.90;;;;;;5052892;28;20184;-88
2022/01/21 03:26:20;;;;;;;5.43;1.30;;;25.40;99.90;;;;;;5068831;28;20192;-87
2022/01/21 03:28:52;;;;;;;4.28;1.23;;;25.40;99.90;;;;;;5064848;28;20254;-90
2022/01/21 03:31:24;;;;;;;5.63;1.52;;;25.30;99.90;;;;;;5061617;28;20192;-88
2022/01/21 03:33:59;;;;;;;5.10;1.30;;;25.40;99.90;;;;;;5064194;28;20678;-88
2022/01/21 03:36:30;;;;;;;5.45;1.52;;;25.50;99.90;;;;;;5054176;28;20593;-88
2022/01/21 03:39:03;;;;;;;5.72;1.73;;;25.60;99.90;;;;;;5060099;28;20255;-87
2022/01/21 03:41:33;;;;;;;6.38;1.45;;;25.60;99.90;;;;;;5057035;28;20192;-88
2022/01/21 03:44:04;;;;;;;5.57;1.20;;;25.50;99.90;;;;;;5059505;28;20205;-89
2022/01/21 03:46:35;;;;;;;4.18;1.35;;;25.60;99.90;;;;;;5073361;28;20188;-87
2022/01/21 03:49:08;;;;;;;6.25;1.40;;;25.60;99.90;;;;;;5073543;28;20199;-87
2022/01/21 03:51:38;;;;;;;5.20;1.35;;;25.70;99.90;;;;;;5065385;28;20195;-88
2022/01/21 03:54:11;;;;;;;6.32;1.63;;;25.70;99.90;;;;;;5053387;28;20207;-86
2022/01/21 03:56:42;;;;;;;3.95;1.33;;;25.70;99.90;;;;;;5064556;28;20224;-87
2022/01/21 03:59:12;;;;;;;3.03;1.15;;;25.50;99.90;;;;;;5053100;28;20185;-83
2022/01/21 04:01:44;;;;;;;6.13;1.35;;;25.50;99.90;;;;;;5062974;28;20185;-89
2022/01/21 04:04:15;;;;;;;5.07;1.48;;;25.20;99.90;;;;;;5061717;28;20602;-91
2022/01/21 04:06:46;;;;;;;6.07;1.42;;;24.90;99.90;;;;;;5055473;28;20722;-89
2022/01/21 04:09:20;;;;;;;7.40;1.13;;;24.70;99.90;;;;;;5060714;28;20204;-91
2022/01/21 04:11:52;;;;;;;4.40;0.95;;;24.50;99.90;;;;;;5058002;28;20223;-87
2022/01/21 04:14:23;;;;;;;5.50;1.17;;;24.10;99.90;;;;;;5072966;28;20180;-87
2022/01/21 04:16:54;;;;;;;5.18;1.17;;;23.90;99.90;;;;;;5071664;28;20294;-86
2022/01/21 04:19:24;;;;;;;5.32;1.05;;;23.80;99.90;;;;;;5065132;28;20193;-86
2022/01/21 04:21:55;;;;;;;5.65;1.10;;;23.70;99.90;;;;;;5032604;28;20209;-87
2022/01/21 04:24:29;;;;;;;3.60;1.00;;;23.50;99.90;;;;;;5032596;28;20197;-87
2022/01/21 04:26:59;;;;;;;5.13;1.17;;;23.50;99.90;;;;;;5059437;28;20481;-88
2022/01/21 04:29:30;;;;;;;8.52;1.50;;;23.40;99.90;;;;;;5052618;28;20211;-90
2022/01/21 04:32:01;;;;;;;4.97;1.10;;;23.40;99.90;;;;;;5055617;28;20196;-88
2022/01/21 04:34:33;;;;;;;6.55;1.40;;;23.40;99.90;;;;;;5060840;28;20212;-87
2022/01/21 04:37:05;;;;;;;5.65;0.98;;;23.30;99.90;;;;;;5052245;28;20216;-85
2022/01/21 04:39:43;;;;;;;4.95;1.20;;;23.40;99.90;;;;;;5058960;28;20384;-86
2022/01/21 04:47:47;;;;;;;4.15;1.30;;;23.30;99.90;;;;;;5041622;28;20211;-88
2022/01/21 04:50:18;;;;;;;6.68;1.15;;;23.40;99.90;;;;;;5071555;28;20637;-88
2022/01/21 04:52:49;;;;;;;4.60;1.00;;;23.60;99.90;;;;;;5064077;28;20188;-87
2022/01/21 04:55:25;;;;;;;6.32;1.40;;;23.60;99.90;;;;;;5063695;28;20193;-88
2022/01/21 04:57:55;;;;;;;5.45;1.30;;;23.50;99.90;;;;;;5053067;28;20192;-88
2022/01/21 05:00:27;;;;;;;4.70;1.02;;;23.60;99.90;;;;;;5063204;28;20227;-89
2022/01/21 05:02:58;;;;;;;4.20;1.00;;;23.50;99.90;;;;;;5058507;28;20597;-89
2022/01/21 05:05:29;;;;;;;4.70;1.10;;;23.50;99.90;;;;;;5072579;28;20188;-87
2022/01/21 05:08:04;;;;;;;7.10;1.25;;;23.60;99.90;;;;;;5066741;28;20211;-87
2022/01/21 05:10:39;;;;;;;7.25;1.13;;;23.50;99.90;;;;;;5051962;28;20294;-89
2022/01/21 05:13:15;;;;;;;7.13;1.23;;;23.50;99.90;;;;;;5052047;28;20188;-86
2022/01/21 05:16:00;;;;;;;6.45;1.27;;;23.50;99.90;;;;;;5053913;28;20216;-85
2022/01/21 05:18:32;;;;;;;6.97;1.20;;;23.50;99.90;;;;;;5053099;28;20228;-86
2022/01/21 05:21:04;;;;;;;6.07;1.10;;;23.50;99.90;;;;;;5056078;28;20183;-85
2022/01/21 05:23:37;;;;;;;8.32;1.48;;;23.40;99.90;;;;;;5068902;28;20184;-85
2022/01/21 05:26:12;;;;;;;5.60;1.25;;;23.30;99.90;;;;;;5039967;28;20269;-86
2022/01/21 05:28:43;;;;;;;3.85;1.35;;;23.20;99.90;;;;;;5070100;28;20314;-87
2022/01/21 05:31:14;;;;;;;8.15;1.30;;;23.10;99.90;;;;;;5067188;28;20212;-85
2022/01/21 05:33:45;;;;;;;5.22;1.08;;;23.10;99.90;;;;;;5066173;28;20267;-85
2022/01/21 05:36:16;;;;;;;4.18;1.27;;;23.00;99.90;;;;;;5051353;28;20224;-87
2022/01/21 05:38:47;;;;;;;4.68;1.20;;;22.80;99.90;;;;;;5059664;28;20227;-88
2022/01/21 05:41:22;;;;;;;5.18;1.20;;;22.70;99.90;;;;;;5087700;28;20184;-87
2022/01/21 05:44:00;;;;;;;4.63;1.15;;;22.70;99.90;;;;;;5084436;28;20218;-84
2022/01/21 05:46:48;;;;;;;4.30;1.13;;;22.60;99.90;;;;;;5065601;28;20198;-86
2022/01/21 05:49:19;;;;;;;3.33;0.90;;;22.60;99.90;;;;;;5070956;28;20196;-83
2022/01/21 05:51:51;;;;;;;5.93;1.17;;;22.50;99.90;;;;;;5063221;28;20188;-86
2022/01/21 05:54:25;;;;;;;3.25;1.00;;;22.60;99.90;;;;;;5068818;28;20212;-82
2022/01/21 05:56:58;;;;;;;3.65;1.30;;;22.60;99.90;;;;;;5070353;28;20693;-87
2022/01/21 05:59:29;;;;;;;4.22;1.20;;;22.50;99.90;;;;;;5071076;28;20185;-85
2022/01/21 06:02:00;;;;;;;5.00;1.10;;;22.50;99.90;;;;;;5064698;28;20200;-88
2022/01/21 06:04:31;;;;;;;4.20;1.00;;;22.40;99.90;;;;;;5033515;28;20284;-84
2022/01/21 06:07:02;;;;;;;4.05;1.00;;;22.40;99.90;;;;;;5060217;28;20192;-85
2022/01/21 06:09:33;;;;;;;7.63;1.27;;;22.30;99.90;;;;;;5057151;28;20205;-90
2022/01/21 06:12:08;;;;;;;6.15;1.20;;;22.30;99.90;;;;;;5015011;28;20280;-87
2022/01/21 06:14:39;;;;;;;4.88;1.35;;;22.30;99.90;;;;;;5032841;28;20200;-86
2022/01/21 06:17:12;;;;;;;3.28;1.13;;;22.30;99.90;;;;;;5034496;28;20225;-87
2022/01/21 06:19:44;;;;;;;5.90;1.10;;;22.40;99.90;;;;;;5034702;28;20259;-87
2022/01/21 06:22:15;;;;;;;7.00;1.58;;;22.40;99.90;;;;;;5031456;28;20259;-85
2022/01/21 06:24:46;;;;;;;3.90;1.00;;;22.40;99.90;;;;;;5014727;28;20210;-85
2022/01/21 06:27:25;;;;;;;8.00;1.48;;;22.50;99.90;;;;;;5033759;28;20561;-85
2022/01/21 06:29:56;;;;;;;5.57;1.70;;;22.50;99.90;;;;;;5034494;28;20185;-85
2022/01/21 06:32:28;;;;;;;5.50;1.40;;;22.60;99.90;;;;;;5033886;28;20202;-85
2022/01/21 06:34:59;;;;;;;8.50;1.60;;;22.60;99.90;;;;;;5030369;28;20221;-86
2022/01/21 06:37:29;;;;;;;6.35;1.40;;;22.60;99.90;;;;;;5032077;28;20221;-86
2022/01/21 06:40:00;;;;;;;4.47;1.10;;;22.60;99.90;;;;;;5030540;28;20196;-86
2022/01/21 06:42:33;;;;;;;7.65;1.40;;;22.60;99.90;;;;;;5028094;28;20200;-86
2022/01/21 06:45:04;;;;;;;7.18;1.35;;;22.60;99.90;;;;;;5032823;28;20661;-86
2022/01/21 06:47:35;;;;;;;3.25;1.02;;;22.60;99.90;;;;;;5033613;28;20656;-86
2022/01/21 06:50:07;;;;;;;2.70;0.93;;;22.60;99.90;;;;;;5033606;28;20660;-86
2022/01/21 06:52:39;;;;;;;3.55;0.90;;;22.60;99.90;;;;;;5013198;28;20239;-85
2022/01/21 06:55:11;;;;;;;4.68;1.10;;;22.70;99.90;;;;;;5027444;28;20198;-86
2022/01/21 06:57:45;;;;;;;3.42;0.93;;;22.80;99.90;;;;;;5022945;28;20217;-87
2022/01/21 07:00:19;;;;;;;5.40;1.13;;;22.80;99.90;;;;;;5025866;28;20201;-85
2022/01/21 07:02:51;;;;;;;3.15;0.90;;;22.80;99.90;;;;;;5023372;28;20201;-85
2022/01/21 07:05:25;;;;;;;3.25;0.80;;;22.80;99.90;;;;;;5033927;28;20546;-86
2022/01/21 07:07:56;;;;;;;5.53;1.00;;;22.90;99.90;;;;;;5018398;28;20193;-86
2022/01/21 07:10:27;;;;;;;2.65;0.73;;;22.90;99.90;;;;;;5046663;28;20227;-87
2022/01/21 07:13:01;;;;;;;3.55;0.95;;;22.80;99.90;;;;;;5056815;28;20192;-87
2022/01/21 07:15:33;;;;;;;4.07;1.08;;;22.70;99.90;;;;;;5069886;28;20273;-87
2022/01/21 07:18:03;;;;;;;3.60;1.10;;;22.70;99.90;;;;;;5056226;28;20212;-87
2022/01/21 07:20:34;;;;;;;6.00;1.40;;;22.70;99.90;;;;;;5073170;28;20716;-87
2022/01/21 07:23:05;;;;;;;3.53;0.90;;;22.70;99.90;;;;;;5073422;28;20184;-87
2022/01/21 07:25:35;;;;;;;4.93;1.25;;;22.60;99.90;;;;;;5073289;28;20207;-87
2022/01/21 07:28:09;;;;;;;5.47;1.10;;;22.50;99.90;;;;;;5073461;28;20200;-85
2022/01/21 07:30:39;;;;;;;3.67;0.90;;;22.60;99.90;;;;;;5073231;28;20284;-87
2022/01/21 07:33:10;;;;;;;2.83;0.88;;;22.60;99.90;;;;;;5068358;28;20192;-86
2022/01/21 07:35:41;;;;;;;5.72;0.98;;;22.50;99.90;;;;;;5072970;28;20275;-87
2022/01/21 07:38:13;;;;;;;4.93;1.08;;;22.50;99.90;;;;;;5069828;28;20223;-85
2022/01/21 07:40:44;;;;;;;3.28;1.00;;;22.50;99.90;;;;;;5053524;28;20192;-83
2022/01/21 07:43:18;;;;;;;2.60;0.80;;;22.60;99.90;;;;;;5057887;28;20280;-89
2022/01/21 07:45:50;;;;;;;3.70;1.02;;;22.60;99.90;;;;;;5045301;28;20201;-84
2022/01/21 07:48:21;;;;;;;2.83;1.00;;;22.70;99.90;;;;;;5039418;28;20227;-89
2022/01/21 07:50:55;;;;;;;3.70;1.25;;;23.40;99.90;;;;;;5048377;28;20216;-92
2022/01/21 07:53:25;;;;;;;4.80;1.33;;;23.70;99.90;;;;;;5053275;28;20204;-89
2022/01/21 07:55:57;;;;;;;2.70;0.90;;;23.60;99.90;;;;;;5058489;28;20225;-88
2022/01/21 07:58:31;;;;;;;3.00;0.90;;;23.50;99.90;;;;;;5072821;28;20223;-89
2022/01/21 08:01:02;;;;;;;5.05;1.33;;;23.40;99.90;;;;;;5061777;28;20200;-86
2022/01/21 08:03:32;;;;;;;3.40;0.98;;;23.30;99.90;;;;;;5050204;28;20217;-85
2022/01/21 08:06:03;;;;;;;5.57;1.20;;;23.20;99.90;;;;;;5061799;28;20323;-83
2022/01/21 08:08:35;;;;;;;3.83;0.95;;;23.10;99.90;;;;;;5052780;28;20196;-85
2022/01/21 08:11:05;;;;;;;4.00;1.17;;;23.00;99.90;;;;;;5072078;28;20737;-86
2022/01/21 08:13:38;;;;;;;4.75;1.30;;;22.90;99.90;;;;;;5073824;28;20220;-85
2022/01/21 08:16:09;;;;;;;4.47;1.13;;;22.80;99.90;;;;;;5047557;28;20200;-86
2022/01/21 08:18:39;;;;;;;4.38;1.30;;;22.80;99.90;;;;;;5065331;28;20188;-89
2022/01/21 08:21:10;;;;;;;2.92;0.95;;;22.80;99.90;;;;;;5045934;28;20197;-86
2022/01/21 08:23:41;;;;;;;4.63;1.10;;;22.70;99.90;;;;;;5062378;28;21062;-83
2022/01/21 08:26:12;;;;;;;3.67;1.02;;;22.60;99.90;;;;;;5049661;28;20199;-87
2022/01/21 08:28:44;;;;;;;4.70;1.13;;;22.60;99.90;;;;;;5047384;28;20262;-85
2022/01/21 08:31:15;;;;;;;2.80;0.90;;;22.50;99.90;;;;;;5036274;28;20189;-86
2022/01/21 08:33:45;;;;;;;3.95;1.00;;;22.50;99.90;;;;;;5065815;28;20188;-89
2022/01/21 08:36:18;;;;;;;4.63;1.30;;;22.40;99.90;;;;;;5062715;28;20227;-85
2022/01/21 08:38:51;;;;;;;3.90;0.95;;;22.30;99.90;;;;;;5075479;28;20207;-86
2022/01/21 08:41:23;;;;;;;5.63;1.10;;;22.30;99.90;;;;;;5060392;28;20204;-86
2022/01/21 08:43:55;;;;;;;3.78;0.90;;;22.30;99.90;;;;;;5056679;28;20555;-85
2022/01/21 08:46:26;;;;;;;3.08;0.90;;;22.20;99.90;;;;;;5053358;28;20202;-86
2022/01/21 08:48:57;;;;;;;3.00;1.02;;;22.20;99.90;;;;;;5059939;28;20618;-86
2022/01/21 08:51:38;;;;;;;4.25;0.82;;;22.20;99.90;;;;;;5050644;28;20215;-85
2022/01/21 08:54:09;;;;;;;3.88;1.08;;;22.20;99.90;;;;;;5032743;28;20212;-84
2022/01/21 08:56:40;;;;;;;5.82;1.17;;;22.20;99.90;;;;;;5056104;28;20636;-86
2022/01/21 08:59:12;;;;;;;4.43;1.13;;;22.10;99.90;;;;;;5062208;28;20188;-85
2022/01/21 09:01:43;;;;;;;4.40;1.00;;;22.10;99.90;;;;;;5044642;28;20270;-86
2022/01/21 09:04:14;;;;;;;4.38;1.10;;;22.10;99.90;;;;;;5043836;28;20216;-84
2022/01/21 09:06:46;;;;;;;3.45;0.80;;;22.10;99.90;;;;;;5051345;28;20192;-85
2022/01/21 09:09:17;;;;;;;3.85;1.20;;;22.10;99.90;;;;;;5057170;28;20242;-84
2022/01/21 09:11:48;;;;;;;3.65;0.90;;;22.00;99.90;;;;;;5046183;28;20596;-84
2022/01/21 09:14:20;;;;;;;4.88;1.23;;;22.00;99.90;;;;;;5052256;28;20193;-85
2022/01/21 09:16:52;;;;;;;4.30;1.20;;;22.00;99.90;;;;;;5045180;28;20287;-84
2022/01/21 09:19:23;;;;;;;3.58;1.20;;;22.00;99.90;;;;;;5050602;28;20204;-84
2022/01/21 09:21:55;;;;;;;3.75;1.08;;;22.00;99.90;;;;;;5052177;28;20212;-86
2022/01/21 09:24:26;;;;;;;5.00;1.15;;;22.00;99.90;;;;;;5055335;28;20231;-86
2022/01/21 09:26:57;;;;;;;4.18;1.10;;;22.00;99.90;;;;;;5049665;28;20224;-84
2022/01/21 09:29:30;;;;;;;6.80;1.17;;;22.00;99.90;;;;;;5050399;28;20220;-86
2022/01/21 09:32:01;;;;;;;4.05;1.02;;;22.00;99.90;;;;;;5054907;28;20204;-85
2022/01/21 09:34:33;;;;;;;5.18;1.17;;;22.00;99.90;;;;;;5051418;28;20196;-85
2022/01/21 09:37:04;;;;;;;4.50;1.10;;;21.90;99.90;;;;;;5063247;28;20270;-84
2022/01/21 09:39:35;;;;;;;3.85;0.90;;;21.90;99.90;;;;;;5048489;28;20188;-84
2022/01/21 09:42:07;;;;;;;2.58;0.90;;;21.90;99.90;;;;;;5051173;28;20228;-85
2022/01/21 09:44:41;;;;;;;6.43;1.55;;;21.90;99.90;;;;;;5071418;28;20732;-85
2022/01/21 09:47:16;;;;;;;2.15;0.93;;;21.90;99.90;;;;;;5078236;28;20200;-85
2022/01/21 09:49:49;;;;;;;5.70;1.15;;;21.80;99.90;;;;;;5056373;28;20275;-83
2022/01/21 09:52:22;;;;;;;3.15;1.27;;;21.80;99.90;;;;;;5054994;28;20189;-82
2022/01/21 09:54:53;;;;;;;3.90;1.10;;;21.80;99.90;;;;;;5049504;28;20242;-87
2022/01/21 09:57:25;;;;;;;5.20;1.52;;;21.90;99.90;;;;;;5063249;28;20224;-87
2022/01/21 09:59:58;;;;;;;5.53;1.70;;;21.90;99.90;;;;;;5048285;28;20224;-85
2022/01/21 10:02:30;;;;;;;8.60;2.22;;;21.90;99.90;;;;;;5049326;28;20193;-85
2022/01/21 10:05:02;;;;;;;5.32;1.70;;;21.90;99.90;;;;;;5054438;28;20205;-87
2022/01/21 10:07:34;;;;;;;7.57;2.22;;;21.90;99.90;;;;;;5063090;28;20207;-86
2022/01/21 10:10:08;;;;;;;4.55;1.92;;;21.90;99.90;;;;;;5074671;28;20243;-85
2022/01/21 10:12:39;;;;;;;6.45;2.13;;;21.80;99.90;;;;;;5072771;28;20192;-87
2022/01/21 10:15:15;;;;;;;5.07;2.10;;;21.80;99.90;;;;;;5052975;28;20207;-88
2022/01/21 10:18:02;;;;;;;6.57;2.25;;;21.90;99.90;;;;;;5065318;28;20227;-85
2022/01/21 10:20:34;;;;;;;5.57;2.40;;;21.90;99.90;;;;;;5071371;28;20188;-86
2022/01/21 10:23:07;;;;;;;4.97;1.98;;;21.90;99.90;;;;;;5069397;28;20196;-85
2022/01/21 10:25:40;;;;;;;8.90;3.80;;;21.90;99.90;;;;;;5070649;28;20209;-85
2022/01/21 10:28:17;;;;;;;8.57;3.40;;;21.90;99.90;;;;;;5063522;28;20613;-85
2022/01/21 10:30:50;;;;;;;7.20;3.45;;;21.90;99.90;;;;;;5065459;28;20188;-85
2022/01/21 10:33:25;;;;;;;7.35;2.85;;;21.90;99.90;;;;;;5069127;28;20197;-85
2022/01/21 10:36:10;;;;;;;5.88;1.65;;;21.90;99.90;;;;;;5072075;28;20196;-85
2022/01/21 10:38:45;;;;;;;6.32;1.80;;;21.90;99.90;;;;;;5076492;28;20255;-86
2022/01/21 10:41:17;;;;;;;4.88;1.75;;;21.80;99.90;;;;;;5075712;28;20203;-86
2022/01/21 10:44:05;;;;;;;3.38;1.40;;;21.80;99.90;;;;;;5075873;28;20191;-84
2022/01/21 10:46:39;;;;;;;5.53;1.60;;;21.70;99.90;;;;;;5073886;28;20563;-84
2022/01/21 10:49:11;;;;;;;3.53;0.98;;;21.70;99.90;;;;;;5067803;28;20678;-86
2022/01/21 10:51:43;;;;;;;4.50;1.02;;;21.70;99.90;;;;;;5066399;28;20212;-85
2022/01/21 10:54:20;;;;;;;6.32;1.10;;;21.70;99.90;;;;;;5071595;28;20199;-86
2022/01/21 10:57:12;;;;;;;3.78;1.15;;;21.60;99.90;;;;;;5068008;28;20203;-86
2022/01/21 10:59:53;;;;;;;4.97;1.00;;;21.60;99.90;;;;;;5050100;28;20216;-86
2022/01/21 11:02:47;;;;;;;3.80;1.13;;;21.60;99.90;;;;;;5066801;28;20211;-86
2022/01/21 11:05:31;;;;;;;2.85;0.90;;;21.50;99.90;;;;;;5063581;28;20243;-85
2022/01/21 11:08:06;;;;;;;4.68;1.30;;;21.50;99.90;;;;;;5076651;28;20194;-85
2022/01/21 11:10:54;;;;;;;3.38;1.17;;;21.50;99.90;;;;;;5069513;28;20614;-85
2022/01/21 11:13:43;;;;;;;5.13;1.30;;;21.50;99.90;;;;;;5063731;28;20611;-84
2022/01/21 11:16:24;;;;;;;3.17;1.15;;;21.50;99.90;;;;;;5062619;28;20192;-90
2022/01/21 11:19:06;;;;;;;3.60;1.23;;;21.50;99.90;;;;;;5062207;28;20227;-85
2022/01/21 11:21:58;;;;;;;3.42;0.98;;;21.40;99.90;;;;;;5080347;28;20184;-86
2022/01/21 11:24:29;;;;;;;3.15;1.00;;;21.40;99.90;;;;;;5048723;28;20220;-84
2022/01/21 11:27:14;;;;;;;5.05;1.25;;;21.50;99.90;;;;;;5065397;28;20269;-84
2022/01/21 11:29:48;;;;;;;3.75;1.00;;;21.50;99.90;;;;;;5049126;28;20229;-85
2022/01/21 11:32:21;;;;;;;5.30;1.10;;;21.50;99.90;;;;;;5055887;28;20221;-87
2022/01/21 11:34:54;;;;;;;3.47;1.23;;;21.50;99.90;;;;;;5056431;28;20581;-85
2022/01/21 11:37:25;;;;;;;5.63;1.35;;;21.50;99.90;;;;;;5057034;28;20188;-84
2022/01/21 11:39:57;;;;;;;5.57;1.25;;;21.40;99.90;;;;;;5062472;28;20185;-84
2022/01/21 11:42:29;;;;;;;3.28;1.20;;;21.40;99.90;;;;;;5058233;28;20203;-84
2022/01/21 11:45:17;;;;;;;4.68;1.38;;;21.40;99.90;;;;;;5068329;28;20542;-83
2022/01/21 11:48:11;;;;;;;2.75;1.08;;;21.40;99.90;;;;;;5064348;28;20192;-84
2022/01/21 11:50:44;;;;;;;5.90;1.50;;;21.40;99.90;;;;;;5073244;28;20561;-83
2022/01/21 11:53:15;;;;;;;4.10;1.20;;;21.30;99.90;;;;;;5067321;28;20241;-83
2022/01/21 11:55:47;;;;;;;4.97;1.20;;;21.30;99.90;;;;;;5064837;28;20196;-83
2022/01/21 11:58:20;;;;;;;3.95;1.30;;;21.20;99.90;;;;;;5059409;28;20248;-84
2022/01/21 12:00:52;;;;;;;4.72;1.35;;;21.20;99.90;;;;;;5052580;28;20201;-86
2022/01/21 12:03:24;;;;;;;5.00;1.20;;;21.20;99.90;;;;;;5066456;28;20188;-84
2022/01/21 12:05:58;;;;;;;4.13;1.38;;;21.20;99.90;;;;;;5060082;28;20217;-86
2022/01/21 12:08:51;;;;;;;3.42;1.10;;;21.20;99.90;;;;;;5054327;28;20200;-85
2022/01/21 12:11:35;;;;;;;4.00;1.20;;;21.20;99.90;;;;;;5042519;28;21107;-85
2022/01/21 12:14:48;;;;;;;4.38;1.27;;;21.30;99.90;;;;;;5070126;28;20233;-86
2022/01/21 12:17:46;;;;;;;3.95;1.23;;;21.20;99.90;;;;;;5070797;28;20723;-86
2022/01/21 12:20:17;;;;;;;6.25;1.52;;;21.30;99.90;;;;;;5070872;28;20241;-85
2022/01/21 12:23:13;;;;;;;5.30;1.30;;;21.20;99.90;;;;;;5049174;28;20213;-86
2022/01/21 12:26:16;;;;;;;5.32;1.20;;;21.20;99.90;;;;;;5066928;28;20192;-85
2022/01/21 12:28:49;;;;;;;2.70;1.15;;;21.20;99.90;;;;;;5049749;28;20219;-85
2022/01/21 12:31:21;;;;;;;3.35;1.20;;;21.20;99.90;;;;;;5052016;28;20637;-85
2022/01/21 12:34:05;;;;;;;6.30;1.42;;;21.10;99.90;;;;;;5057028;28;20189;-82
2022/01/21 12:36:40;;;;;;;4.40;1.20;;;21.10;99.90;;;;;;5065053;28;20192;-83
2022/01/21 12:39:39;;;;;;;4.60;1.30;;;21.10;99.90;;;;;;5073863;28;20212;-84
2022/01/21 12:42:35;;;;;;;3.05;1.05;;;21.10;99.90;;;;;;5051807;28;20287;-83
2022/01/21 12:45:25;;;;;;;5.68;1.00;;;21.10;99.90;;;;;;5056689;28;20256;-84
2022/01/21 12:47:56;;;;;;;4.47;1.40;;;21.10;99.90;;;;;;5040510;28;20206;-83
2022/01/21 12:50:31;;;;;;;2.60;1.17;;;21.10;99.90;;;;;;5064289;28;20188;-84
2022/01/21 12:53:17;;;;;;;7.45;1.50;;;21.10;99.90;;;;;;5058884;28;20220;-84
2022/01/21 12:56:02;;;;;;;6.00;1.38;;;21.20;99.90;;;;;;5052244;28;20734;-83
2022/01/21 12:58:34;;;;;;;5.70;1.20;;;21.10;99.90;;;;;;5049944;28;20632;-85
2022/01/21 13:01:06;;;;;;;5.18;1.40;;;21.10;99.90;;;;;;5052971;28;20192;-85
2022/01/21 13:03:45;;;;;;;4.38;1.38;;;21.20;99.90;;;;;;5047771;28;20655;-86
2022/01/21 13:06:25;;;;;;;4.95;1.25;;;21.30;99.90;;;;;;5046351;28;20631;-84
2022/01/21 13:09:06;;;;;;;4.75;1.23;;;21.30;99.90;;;;;;5048161;28;20200;-85
2022/01/21 13:11:41;;;;;;;6.60;1.38;;;21.30;99.90;;;;;;5062960;28;20273;-85
2022/01/21 13:14:34;;;;;;;4.72;1.20;;;21.30;99.90;;;;;;5048821;28;20227;-84
2022/01/21 13:17:09;;;;;;;5.47;1.70;;;21.30;99.90;;;;;;5054163;28;20232;-84
2022/01/21 13:19:48;;;;;;;5.32;1.40;;;21.40;99.90;;;;;;5049604;28;20220;-84
2022/01/21 13:22:21;;;;;;;6.47;1.35;;;21.30;99.90;;;;;;5030202;28;20749;-84
2022/01/21 13:25:03;;;;;;;3.58;1.00;;;21.30;99.90;;;;;;5047179;28;20201;-84
2022/01/21 13:27:37;;;;;;;5.85;1.40;;;21.30;99.90;;;;;;5060189;28;20192;-85
2022/01/21 13:30:10;;;;;;;5.13;1.13;;;21.30;99.90;;;;;;5048486;28;20253;-84
2022/01/21 13:32:41;;;;;;;4.90;1.20;;;21.40;99.90;;;;;;5033909;28;20213;-83
2022/01/21 13:35:14;;;;;;;5.85;1.27;;;21.30;99.90;;;;;;5047327;28;20228;-83
2022/01/21 13:38:01;;;;;;;3.58;1.05;;;21.30;99.90;;;;;;5044121;28;20192;-83
2022/01/21 13:40:34;;;;;;;8.10;1.25;;;21.30;99.90;;;;;;5064032;28;20228;-84
2022/01/21 13:43:18;;;;;;;4.60;1.45;;;21.30;99.90;;;;;;5051887;28;20197;-83
2022/01/21 13:45:59;;;;;;;6.70;1.15;;;21.20;99.90;;;;;;5054123;28;20209;-83
2022/01/21 13:48:31;;;;;;;3.67;1.20;;;21.20;99.90;;;;;;5050685;28;20240;-83
2022/01/21 13:51:03;;;;;;;4.05;1.30;;;21.20;99.90;;;;;;5067824;28;20188;-84
2022/01/21 13:53:34;;;;;;;5.55;1.20;;;21.20;99.90;;;;;;5048479;28;20304;-83
2022/01/21 13:56:08;;;;;;;4.07;1.20;;;21.20;99.90;;;;;;5046900;28;20218;-83
2022/01/21 13:58:41;;;;;;;3.78;1.05;;;21.20;99.90;;;;;;5049776;28;20220;-83
2022/01/21 14:01:13;;;;;;;3.90;1.00;;;21.10;99.90;;;;;;5055137;28;20783;-83
2022/01/21 14:03:45;;;;;;;4.95;1.00;;;21.10;99.90;;;;;;5054469;28;20673;-83
2022/01/21 14:06:17;;;;;;;5.85;1.20;;;21.10;99.90;;;;;;5048767;28;20729;-83